Time;durP1;ratioP1;P1;durP2;ratioP2;P2;SDS_P1;SDS_P2;PMS_P1;PMS_P2;Temp;Humidity;BMP_temperature;BMP_pressure;BME280_temperature;BME280_humidity;BME280_pressure;Samples;Min_cycle;Max_cycle;Signal;HPM_P1;HPM_P2
2024/04/03 06:21:52;;;;;;;3.80;1.20;;;23.90;61.60;;;;;;5036170;28;21041;-82
2024/04/03 06:24:18;;;;;;;5.30;1.17;;;23.90;61.50;;;;;;5036186;28;20486;-85
2024/04/03 06:26:47;;;;;;;2.20;1.00;;;23.90;61.30;;;;;;5035854;28;20438;-85
2024/04/03 06:29:13;;;;;;;3.43;1.07;;;24.00;61.30;;;;;;5053913;28;20202;-86
2024/04/03 06:31:40;;;;;;;2.23;1.00;;;24.00;61.30;;;;;;5056007;28;20475;-89
2024/04/03 06:34:06;;;;;;;3.07;1.23;;;24.00;61.70;;;;;;5055748;28;20670;-84
2024/04/03 06:36:32;;;;;;;2.10;1.00;;;24.00;61.60;;;;;;5056121;28;20453;-84
2024/04/03 06:39:00;;;;;;;1.90;0.80;;;24.00;61.50;;;;;;5056015;28;20444;-87
2024/04/03 06:41:26;;;;;;;2.30;1.00;;;24.00;61.50;;;;;;5056205;28;20795;-89
2024/04/03 06:43:52;;;;;;;1.60;0.90;;;24.00;61.40;;;;;;5055987;28;20477;-88
2024/04/03 06:46:19;;;;;;;2.30;1.10;;;24.00;61.50;;;;;;5071148;28;20425;-87
2024/04/03 06:48:45;;;;;;;1.70;0.97;;;23.90;61.40;;;;;;5071226;28;20430;-86
2024/04/03 06:51:12;;;;;;;3.50;1.13;;;24.00;61.50;;;;;;5074668;28;20498;-82
2024/04/03 06:53:38;;;;;;;2.47;1.17;;;24.00;61.50;;;;;;5061492;28;20543;-86
2024/04/03 06:56:07;;;;;;;3.07;0.90;;;24.00;61.50;;;;;;5059705;28;20544;-88
2024/04/03 06:58:38;;;;;;;2.80;1.03;;;24.00;61.40;;;;;;5055584;28;20461;-88
2024/04/03 07:01:05;;;;;;;3.60;1.03;;;24.00;61.40;;;;;;5055337;28;20904;-91
2024/04/03 07:03:31;;;;;;;2.43;1.00;;;23.90;61.30;;;;;;5055557;28;20913;-87
2024/04/03 07:05:58;;;;;;;3.27;1.10;;;24.00;61.50;;;;;;5055596;28;20475;-85
2024/04/03 07:08:24;;;;;;;2.90;1.30;;;23.90;61.30;;;;;;5055721;28;20785;-87
2024/04/03 07:10:51;;;;;;;2.20;1.10;;;24.00;61.40;;;;;;5055313;28;20464;-88
2024/04/03 07:13:18;;;;;;;1.60;0.97;;;23.90;61.20;;;;;;5055125;28;20461;-87
2024/04/03 07:15:47;;;;;;;2.07;1.10;;;23.90;61.30;;;;;;5055555;28;20452;-86
2024/04/03 07:18:13;;;;;;;2.10;1.00;;;23.90;61.30;;;;;;5055487;28;20438;-86
2024/04/03 07:20:40;;;;;;;3.27;1.20;;;23.90;61.30;;;;;;5055466;28;20473;-82
2024/04/03 07:23:06;;;;;;;1.80;1.10;;;23.90;61.30;;;;;;5055456;28;20194;-87
2024/04/03 07:25:33;;;;;;;1.60;0.80;;;23.80;61.30;;;;;;5063315;28;20441;-84
2024/04/03 07:28:09;;;;;;;2.50;1.03;;;24.00;61.50;;;;;;5061217;28;20472;-84
2024/04/03 07:30:37;;;;;;;3.20;0.97;;;23.90;61.30;;;;;;5054173;28;20455;-84
2024/04/03 07:33:04;;;;;;;1.90;0.90;;;23.80;61.40;;;;;;5054379;28;20441;-84
2024/04/03 07:35:31;;;;;;;3.10;1.20;;;23.80;61.40;;;;;;5044644;28;20458;-84
2024/04/03 07:37:57;;;;;;;2.53;1.07;;;23.80;61.30;;;;;;5054448;28;20433;-84
2024/04/03 07:40:23;;;;;;;1.90;0.90;;;23.80;61.20;;;;;;5054258;28;20429;-84
2024/04/03 07:42:49;;;;;;;4.60;1.17;;;23.90;61.40;;;;;;5054171;28;20951;-84
2024/04/03 07:45:16;;;;;;;2.13;0.80;;;23.80;61.30;;;;;;5054673;28;20469;-84
2024/04/03 07:47:43;;;;;;;1.70;0.93;;;23.80;61.20;;;;;;5054167;28;20567;-83
2024/04/03 07:50:10;;;;;;;4.83;1.63;;;23.90;61.30;;;;;;5064533;28;20552;-85
2024/04/03 07:52:37;;;;;;;2.20;0.93;;;23.90;61.40;;;;;;5074654;28;20445;-87
2024/04/03 07:55:05;;;;;;;1.90;0.90;;;23.90;61.40;;;;;;5059017;28;20805;-86
2024/04/03 07:57:30;;;;;;;1.87;1.03;;;23.90;61.20;;;;;;5054023;28;20952;-85
2024/04/03 07:59:57;;;;;;;1.90;1.00;;;23.90;61.30;;;;;;5053398;28;20544;-84
2024/04/03 08:02:23;;;;;;;3.73;1.40;;;23.90;61.30;;;;;;5054034;28;20290;-85
2024/04/03 08:04:51;;;;;;;1.63;1.07;;;24.00;61.20;;;;;;5089660;28;20475;-86
2024/04/03 08:07:17;;;;;;;2.63;0.73;;;24.00;61.20;;;;;;5078174;28;20239;-84
2024/04/03 08:09:44;;;;;;;2.67;0.90;;;24.00;61.20;;;;;;5061036;28;20437;-84
2024/04/03 08:12:09;;;;;;;3.23;1.20;;;24.00;61.00;;;;;;5052936;28;20198;-88
2024/04/03 08:14:36;;;;;;;1.90;0.97;;;24.00;61.00;;;;;;5053575;28;20443;-85
2024/04/03 08:17:02;;;;;;;1.50;0.73;;;24.00;61.00;;;;;;5071937;28;20185;-88
2024/04/03 08:19:29;;;;;;;2.53;0.97;;;24.00;61.00;;;;;;5074539;28;20471;-89
2024/04/03 08:22:06;;;;;;;1.50;0.77;;;24.00;61.00;;;;;;5073988;28;20563;-91
2024/04/03 08:30:34;;;;;;;1.70;0.93;;;24.00;60.80;;;;;;5142195;22;21062;-92
2024/04/03 08:33:11;;;;;;;1.70;0.80;;;24.10;61.00;;;;;;5055772;28;20445;-93
2024/04/03 08:35:38;;;;;;;1.90;0.87;;;24.10;61.00;;;;;;5055583;28;20449;-90
2024/04/03 08:38:05;;;;;;;1.80;1.00;;;24.10;60.80;;;;;;5056049;28;20442;-90
2024/04/03 08:40:35;;;;;;;2.70;1.10;;;24.10;60.80;;;;;;5054949;28;20963;-94
2024/04/03 08:43:02;;;;;;;1.60;0.80;;;24.20;60.80;;;;;;5053798;28;20445;-88
2024/04/03 08:45:33;;;;;;;2.37;1.03;;;24.10;60.60;;;;;;5052936;28;20485;-88
2024/04/03 08:48:00;;;;;;;2.83;1.03;;;24.10;60.60;;;;;;5053606;28;20432;-86
2024/04/03 08:50:28;;;;;;;1.97;0.93;;;24.20;60.80;;;;;;5054482;28;20477;-88
2024/04/03 08:52:55;;;;;;;1.70;0.90;;;24.10;60.60;;;;;;5053781;28;20452;-88
2024/04/03 08:55:24;;;;;;;1.50;0.80;;;24.10;60.70;;;;;;5053725;28;20454;-89
2024/04/03 08:57:50;;;;;;;1.77;0.83;;;24.10;60.80;;;;;;5053572;28;20457;-88
2024/04/03 09:00:17;;;;;;;2.10;0.90;;;24.10;60.70;;;;;;5053954;28;20524;-88
2024/04/03 09:02:43;;;;;;;1.90;1.10;;;24.10;60.80;;;;;;5053578;28;20578;-87
2024/04/03 09:05:11;;;;;;;3.93;1.10;;;24.10;60.70;;;;;;5053621;28;20481;-87
2024/04/03 09:07:37;;;;;;;1.83;0.90;;;24.10;60.70;;;;;;5053832;28;20293;-87
2024/04/03 09:10:05;;;;;;;1.73;0.90;;;24.10;60.80;;;;;;5054368;28;20449;-86
2024/04/03 09:12:34;;;;;;;2.10;0.93;;;24.10;60.90;;;;;;5057685;28;20482;-90
2024/04/03 09:15:08;;;;;;;2.10;1.00;;;24.10;60.80;;;;;;5059011;28;20839;-89
2024/04/03 09:17:34;;;;;;;1.67;0.90;;;24.10;60.70;;;;;;5058945;28;20444;-91
2024/04/03 09:20:02;;;;;;;2.70;1.03;;;24.10;60.90;;;;;;5057879;28;20452;-90
2024/04/03 09:22:27;;;;;;;2.10;1.30;;;24.10;60.90;;;;;;5045183;28;20442;-91
2024/04/03 09:24:55;;;;;;;1.50;0.80;;;24.20;61.00;;;;;;5038579;28;20484;-91
2024/04/03 09:27:21;;;;;;;1.60;0.90;;;24.10;60.90;;;;;;5038261;28;20227;-89
2024/04/03 09:29:55;;;;;;;1.97;0.93;;;24.10;60.90;;;;;;5047478;28;21040;-88
2024/04/03 09:32:20;;;;;;;1.77;0.90;;;24.10;60.80;;;;;;5057839;28;20248;-86
2024/04/03 09:34:50;;;;;;;3.83;1.17;;;24.10;60.80;;;;;;5056903;28;20449;-88
2024/04/03 09:37:16;;;;;;;2.20;1.10;;;24.10;60.80;;;;;;5058101;28;20605;-90
2024/04/03 09:39:43;;;;;;;1.90;0.87;;;24.10;60.70;;;;;;5057909;28;20495;-90
2024/04/03 09:42:15;;;;;;;1.67;1.00;;;24.10;60.70;;;;;;5057392;28;20441;-90
2024/04/03 09:44:42;;;;;;;1.90;0.90;;;24.10;60.70;;;;;;5057611;28;20472;-88
2024/04/03 09:47:15;;;;;;;2.27;1.20;;;24.20;60.70;;;;;;5057769;28;20442;-89
2024/04/03 09:49:45;;;;;;;1.80;0.80;;;24.20;60.70;;;;;;5056958;28;20437;-90
2024/04/03 09:52:11;;;;;;;2.10;1.00;;;24.20;60.80;;;;;;5057214;28;20536;-90
2024/04/03 09:54:39;;;;;;;1.77;0.97;;;24.20;60.60;;;;;;5057360;28;20939;-91
2024/04/03 09:57:06;;;;;;;1.50;0.90;;;24.20;60.60;;;;;;5057714;28;20551;-90
2024/04/03 09:59:37;;;;;;;1.43;0.80;;;24.40;60.80;;;;;;5057454;28;20451;-91
2024/04/03 10:02:03;;;;;;;1.70;0.90;;;24.20;60.60;;;;;;5056698;28;20430;-88
2024/04/03 10:04:37;;;;;;;1.80;0.80;;;24.30;60.60;;;;;;5057293;28;20485;-92
2024/04/03 10:07:03;;;;;;;1.80;0.80;;;24.30;60.50;;;;;;5057886;28;20456;-91
2024/04/03 10:09:32;;;;;;;1.83;0.80;;;24.30;60.60;;;;;;5049859;28;20476;-93
2024/04/03 10:11:58;;;;;;;2.27;1.07;;;24.30;60.40;;;;;;5057256;28;20868;-90
2024/04/03 10:14:29;;;;;;;2.63;0.93;;;24.30;60.50;;;;;;5056796;28;20449;-90
2024/04/03 10:16:55;;;;;;;3.20;1.83;;;24.40;60.60;;;;;;5057222;28;20959;-86
2024/04/03 10:19:23;;;;;;;3.10;1.10;;;24.30;60.40;;;;;;5055571;28;20448;-83
2024/04/03 10:21:50;;;;;;;2.87;1.00;;;24.40;60.50;;;;;;5055167;28;20433;-83
2024/04/03 10:24:20;;;;;;;1.70;0.77;;;24.40;60.50;;;;;;5055055;28;20477;-88
2024/04/03 10:26:47;;;;;;;2.20;1.00;;;24.40;60.40;;;;;;5056543;28;20466;-90
2024/04/03 10:29:14;;;;;;;1.60;0.90;;;24.40;60.50;;;;;;5055585;28;20512;-89
2024/04/03 10:31:40;;;;;;;1.87;0.90;;;24.40;60.50;;;;;;5055966;28;20794;-88
2024/04/03 10:34:07;;;;;;;1.60;0.83;;;24.40;60.60;;;;;;5056539;28;20455;-88
2024/04/03 10:36:32;;;;;;;1.50;0.80;;;24.40;60.50;;;;;;5056056;28;20209;-90
2024/04/03 10:39:01;;;;;;;1.70;0.90;;;24.30;60.50;;;;;;5055961;28;20445;-88
2024/04/03 10:41:27;;;;;;;2.13;1.10;;;24.40;60.50;;;;;;5055796;28;20195;-90
2024/04/03 10:43:54;;;;;;;2.53;0.80;;;24.40;60.50;;;;;;5056370;28;20499;-88
2024/04/03 10:46:23;;;;;;;1.70;0.93;;;24.40;60.50;;;;;;5056134;28;20201;-88
2024/04/03 10:48:50;;;;;;;1.70;0.80;;;24.50;60.40;;;;;;5056247;28;20813;-90
2024/04/03 10:51:16;;;;;;;1.40;0.80;;;24.40;60.30;;;;;;5056941;28;20449;-89
2024/04/03 10:53:43;;;;;;;1.50;0.70;;;24.40;60.20;;;;;;5056790;28;20446;-89
2024/04/03 10:56:11;;;;;;;1.40;0.70;;;24.50;60.40;;;;;;5055741;28;20944;-89
2024/04/03 10:58:39;;;;;;;1.40;0.70;;;24.40;60.30;;;;;;5055818;28;20506;-87
2024/04/03 11:01:05;;;;;;;1.50;0.80;;;24.50;60.40;;;;;;5070800;28;20519;-91
2024/04/03 11:03:32;;;;;;;1.87;1.10;;;24.50;60.40;;;;;;5076424;28;20452;-92
2024/04/03 11:05:58;;;;;;;2.57;0.90;;;24.50;60.40;;;;;;5076213;28;20222;-93
2024/04/03 11:08:25;;;;;;;1.53;0.93;;;24.50;60.30;;;;;;5077093;28;20455;-90
2024/04/03 11:11:02;;;;;;;3.63;0.80;;;24.50;61.20;;;;;;5082018;28;20181;-90
2024/04/03 11:13:30;;;;;;;2.10;1.00;;;24.50;60.30;;;;;;5064157;28;20448;-89
2024/04/03 11:15:56;;;;;;;1.70;1.10;;;24.50;61.20;;;;;;5074798;28;20440;-89
2024/04/03 11:18:23;;;;;;;1.77;1.00;;;24.60;60.50;;;;;;5055976;28;20884;-91
2024/04/03 11:20:48;;;;;;;3.37;1.07;;;24.50;61.20;;;;;;5055499;28;20198;-91
2024/04/03 11:23:15;;;;;;;1.60;0.80;;;24.50;60.30;;;;;;5055669;28;20450;-87
2024/04/03 11:25:41;;;;;;;1.60;0.70;;;24.50;60.30;;;;;;5054887;28;20590;-86
2024/04/03 11:28:08;;;;;;;1.80;0.90;;;24.60;60.30;;;;;;5054838;28;20535;-89
2024/04/03 11:30:39;;;;;;;3.03;0.97;;;24.60;60.20;;;;;;5061851;28;20298;-86
2024/04/03 11:33:06;;;;;;;1.90;1.10;;;24.60;60.20;;;;;;5072447;28;20441;-86
2024/04/03 11:35:32;;;;;;;1.50;0.80;;;24.60;60.20;;;;;;5068753;28;20445;-86
2024/04/03 11:38:00;;;;;;;3.50;1.00;;;24.60;60.20;;;;;;5066049;28;21009;-87
2024/04/03 11:40:27;;;;;;;1.50;0.80;;;24.70;60.40;;;;;;5054295;28;20241;-87
2024/04/03 11:42:53;;;;;;;1.70;0.83;;;24.60;60.20;;;;;;5054386;28;20449;-86
2024/04/03 11:45:19;;;;;;;1.60;0.80;;;24.60;60.40;;;;;;5054052;28;20487;-86
2024/04/03 11:47:47;;;;;;;2.63;0.80;;;24.60;60.30;;;;;;5054073;28;20453;-86
2024/04/03 11:50:13;;;;;;;1.50;0.80;;;24.70;60.30;;;;;;5054460;28;20441;-87
2024/04/03 11:52:40;;;;;;;1.60;0.80;;;24.70;60.20;;;;;;5054524;28;20455;-87
2024/04/03 11:55:06;;;;;;;1.60;0.80;;;24.70;60.10;;;;;;5053822;28;20460;-86
2024/04/03 11:57:33;;;;;;;2.00;0.90;;;24.70;60.10;;;;;;5054014;28;20469;-86
2024/04/03 11:59:59;;;;;;;1.60;0.80;;;24.70;60.20;;;;;;5053782;28;20199;-88
2024/04/03 12:02:26;;;;;;;1.60;0.70;;;24.70;60.20;;;;;;5054029;28;20804;-85
2024/04/03 12:04:54;;;;;;;1.50;0.80;;;24.70;60.30;;;;;;5054081;28;20230;-84
2024/04/03 12:07:20;;;;;;;2.20;0.80;;;24.70;60.30;;;;;;5054256;28;20449;-85
2024/04/03 12:09:46;;;;;;;2.77;1.00;;;24.70;60.30;;;;;;5057136;28;20536;-88
2024/04/03 12:12:15;;;;;;;2.00;0.80;;;24.70;60.20;;;;;;5058771;28;20497;-93
2024/04/03 12:14:43;;;;;;;1.70;0.90;;;24.70;60.10;;;;;;5063221;28;20444;-90
2024/04/03 12:17:10;;;;;;;1.63;0.80;;;24.70;60.30;;;;;;5054600;28;20526;-81
2024/04/03 12:19:44;;;;;;;2.60;0.80;;;24.70;60.30;;;;;;5052034;28;20825;-88
2024/04/03 12:22:13;;;;;;;1.67;0.80;;;24.70;60.30;;;;;;5054460;28;20456;-85
2024/04/03 12:24:38;;;;;;;2.50;0.77;;;24.70;60.30;;;;;;5054195;28;20568;-84
2024/04/03 12:27:06;;;;;;;1.50;0.80;;;24.70;60.10;;;;;;5054442;28;20822;-90
2024/04/03 12:29:32;;;;;;;6.20;1.13;;;24.70;60.40;;;;;;5055765;28;20231;-89
2024/04/03 12:31:59;;;;;;;2.77;0.80;;;24.70;60.30;;;;;;5056151;28;20442;-89
2024/04/03 12:34:26;;;;;;;1.50;0.70;;;24.70;60.40;;;;;;5055749;28;20498;-90
2024/04/03 12:36:52;;;;;;;1.83;0.80;;;24.70;60.50;;;;;;5056642;28;20444;-89
2024/04/03 12:39:20;;;;;;;1.70;0.80;;;24.70;60.10;;;;;;5057027;28;20448;-90
2024/04/03 12:41:48;;;;;;;1.70;0.90;;;24.70;60.10;;;;;;5057726;28;20469;-90
2024/04/03 12:44:14;;;;;;;1.53;0.83;;;24.80;60.40;;;;;;5057946;28;20438;-82
2024/04/03 12:46:41;;;;;;;1.70;0.90;;;24.80;60.50;;;;;;5057907;28;20444;-84
2024/04/03 12:49:06;;;;;;;1.63;0.87;;;24.80;60.40;;;;;;5058172;28;20225;-83
2024/04/03 12:51:33;;;;;;;2.87;1.00;;;24.80;60.40;;;;;;5058389;28;20434;-86
2024/04/03 12:53:59;;;;;;;1.83;0.80;;;24.80;60.40;;;;;;5057503;28;20198;-84
2024/04/03 12:56:27;;;;;;;1.50;0.70;;;24.80;60.40;;;;;;5057100;28;20449;-85
2024/04/03 12:58:55;;;;;;;3.80;0.90;;;24.80;60.40;;;;;;5057702;28;20194;-89
2024/04/03 13:01:22;;;;;;;3.00;0.80;;;24.80;60.30;;;;;;5060012;28;20445;-91
2024/04/03 13:03:52;;;;;;;1.60;0.70;;;24.80;60.30;;;;;;5059088;28;20441;-90
2024/04/03 13:06:21;;;;;;;1.80;0.90;;;24.80;60.40;;;;;;5059126;28;20526;-90
2024/04/03 13:08:47;;;;;;;1.73;0.80;;;24.80;60.40;;;;;;5058826;28;20441;-90
2024/04/03 13:11:14;;;;;;;2.63;0.83;;;24.80;60.40;;;;;;5057886;28;20824;-85
2024/04/03 13:13:41;;;;;;;1.70;0.70;;;24.80;60.40;;;;;;5054504;28;20548;-82
2024/04/03 13:16:08;;;;;;;2.47;0.80;;;24.80;60.30;;;;;;5054195;28;20788;-83
2024/04/03 13:18:34;;;;;;;1.60;1.00;;;24.80;60.40;;;;;;5053941;28;20491;-83
2024/04/03 13:21:02;;;;;;;1.60;0.83;;;24.90;60.40;;;;;;5053912;28;20437;-83
2024/04/03 13:23:28;;;;;;;1.93;0.93;;;24.80;60.30;;;;;;5054145;28;20700;-83
2024/04/03 13:25:55;;;;;;;1.50;0.80;;;24.90;60.40;;;;;;5053913;28;20538;-83
2024/04/03 13:28:21;;;;;;;1.50;0.90;;;24.90;60.40;;;;;;5053940;28;20524;-83
2024/04/03 13:30:50;;;;;;;1.60;1.00;;;24.90;60.40;;;;;;5054090;28;20556;-82
2024/04/03 13:33:16;;;;;;;2.07;0.70;;;24.90;60.50;;;;;;5053780;28;20452;-84
2024/04/03 13:35:43;;;;;;;1.47;0.70;;;24.80;60.30;;;;;;5054176;28;20947;-83
2024/04/03 13:38:09;;;;;;;1.77;0.90;;;24.80;60.30;;;;;;5053859;28;20480;-88
2024/04/03 13:40:37;;;;;;;1.50;0.80;;;24.80;60.40;;;;;;5056047;28;20430;-89
2024/04/03 13:43:03;;;;;;;3.00;1.00;;;24.90;60.60;;;;;;5056981;28;20199;-83
2024/04/03 13:45:30;;;;;;;2.77;0.80;;;24.90;60.70;;;;;;5056839;28;20915;-82
2024/04/03 13:47:57;;;;;;;5.30;0.90;;;24.80;60.60;;;;;;5056472;28;20444;-84
2024/04/03 13:50:24;;;;;;;1.70;0.90;;;24.80;60.60;;;;;;5060200;28;20449;-90
2024/04/03 13:52:50;;;;;;;2.20;0.90;;;24.80;60.70;;;;;;5056970;28;20452;-91
2024/04/03 13:55:17;;;;;;;1.70;0.90;;;24.80;60.70;;;;;;5055119;28;20499;-92
2024/04/03 13:57:43;;;;;;;1.60;0.70;;;24.80;60.60;;;;;;5055803;28;20476;-90
2024/04/03 14:00:21;;;;;;;1.60;0.90;;;24.80;60.70;;;;;;5058715;28;20937;-90
2024/04/03 14:02:47;;;;;;;9.13;1.20;;;24.80;60.50;;;;;;5058516;28;20441;-88
2024/04/03 14:05:16;;;;;;;2.77;0.90;;;24.90;59.60;;;;;;5058413;28;20477;-90
2024/04/03 14:07:42;;;;;;;1.80;0.80;;;24.80;59.20;;;;;;5057460;28;20932;-85
2024/04/03 14:10:09;;;;;;;6.27;0.90;;;24.80;59.40;;;;;;5056840;28;20445;-86
2024/04/03 14:12:35;;;;;;;4.00;1.30;;;24.80;59.40;;;;;;5059245;28;20503;-85
2024/04/03 14:15:03;;;;;;;3.80;1.10;;;24.80;59.40;;;;;;5061090;28;20457;-85
2024/04/03 14:17:29;;;;;;;2.33;1.20;;;24.80;59.30;;;;;;5066027;28;20446;-85
2024/04/03 14:19:57;;;;;;;4.90;1.33;;;24.80;59.30;;;;;;5072257;28;20459;-85
2024/04/03 14:22:25;;;;;;;2.80;1.30;;;24.80;59.20;;;;;;5066979;28;20441;-85
2024/04/03 14:24:53;;;;;;;4.80;2.23;;;24.80;59.30;;;;;;5061060;28;20468;-85
2024/04/03 14:27:19;;;;;;;9.03;1.80;;;24.80;59.20;;;;;;5058430;28;20466;-82
2024/04/03 14:29:46;;;;;;;5.40;1.23;;;24.80;59.50;;;;;;5057769;28;20483;-82
2024/04/03 14:32:12;;;;;;;9.33;3.50;;;24.80;59.30;;;;;;5058323;28;20441;-82
2024/04/03 14:34:39;;;;;;;12.70;4.60;;;24.90;60.00;;;;;;5061647;28;21023;-82
2024/04/03 14:37:07;;;;;;;7.63;3.17;;;24.90;60.30;;;;;;5060544;28;20520;-82
2024/04/03 14:39:36;;;;;;;8.50;3.70;;;25.00;59.90;;;;;;5060445;28;20956;-84
2024/04/03 14:42:02;;;;;;;8.50;2.60;;;25.00;60.00;;;;;;5058039;28;20442;-83
2024/04/03 14:44:29;;;;;;;7.20;2.63;;;25.00;59.70;;;;;;5057499;28;20525;-82
2024/04/03 14:46:55;;;;;;;6.90;2.67;;;25.00;59.50;;;;;;5057800;28;20449;-83
2024/04/03 14:49:22;;;;;;;10.17;3.90;;;25.00;59.60;;;;;;5059404;28;20445;-83
2024/04/03 14:51:49;;;;;;;9.00;3.67;;;25.00;59.80;;;;;;5049680;28;20474;-89
2024/04/03 14:54:15;;;;;;;14.10;5.17;;;25.10;59.90;;;;;;5057142;28;20438;-89
2024/04/03 14:56:43;;;;;;;17.33;4.40;;;25.00;59.90;;;;;;5039377;28;20458;-92
2024/04/03 14:59:10;;;;;;;20.50;7.03;;;25.00;60.00;;;;;;5035778;28;20451;-83
2024/04/03 15:01:36;;;;;;;17.87;7.93;;;25.00;62.20;;;;;;5051668;28;20440;-83
2024/04/03 15:04:02;;;;;;;19.47;8.03;;;25.00;61.20;;;;;;5056207;28;20441;-83
2024/04/03 15:06:28;;;;;;;18.07;7.40;;;25.00;61.50;;;;;;5055528;28;20233;-83
2024/04/03 15:08:56;;;;;;;21.27;8.40;;;25.10;61.60;;;;;;5055876;28;20441;-92
2024/04/03 15:11:23;;;;;;;18.37;7.90;;;25.10;61.80;;;;;;5056582;28;20543;-92
2024/04/03 15:13:51;;;;;;;27.27;9.10;;;25.10;62.00;;;;;;5055953;28;20476;-91
2024/04/03 15:16:16;;;;;;;15.53;7.80;;;25.10;61.70;;;;;;5056283;28;20628;-92
2024/04/03 15:18:43;;;;;;;16.60;8.20;;;25.10;61.70;;;;;;5056049;28;20548;-91
2024/04/03 15:21:09;;;;;;;19.97;7.57;;;25.20;62.20;;;;;;5055984;28;20194;-92
2024/04/03 15:23:36;;;;;;;14.57;7.07;;;25.10;62.30;;;;;;5055353;28;20445;-83
2024/04/03 15:26:08;;;;;;;18.53;6.93;;;25.10;62.10;;;;;;5055182;28;20230;-85
2024/04/03 15:28:35;;;;;;;18.77;7.87;;;25.10;62.10;;;;;;5054829;28;20837;-88
2024/04/03 15:31:03;;;;;;;18.90;5.70;;;25.10;61.90;;;;;;5053405;28;20507;-88
2024/04/03 15:33:29;;;;;;;17.53;5.73;;;25.10;61.50;;;;;;5053277;28;20441;-88
2024/04/03 15:35:55;;;;;;;15.13;4.43;;;25.00;60.60;;;;;;5052121;28;20537;-88
2024/04/03 15:38:22;;;;;;;8.37;4.00;;;25.00;60.40;;;;;;5034580;28;21029;-89
2024/04/03 15:40:48;;;;;;;10.13;4.87;;;24.90;60.40;;;;;;5037270;28;20279;-88
2024/04/03 15:43:39;;;;;;;10.23;3.80;;;24.90;60.40;;;;;;5055374;28;20537;-90
2024/04/03 15:46:06;;;;;;;5.20;2.93;;;24.90;60.40;;;;;;5055413;28;20598;-88
2024/04/03 15:48:33;;;;;;;12.03;3.70;;;24.90;60.40;;;;;;5054433;28;20540;-87
2024/04/03 15:50:59;;;;;;;8.60;3.50;;;24.90;60.60;;;;;;5038214;28;20444;-86
2024/04/03 15:53:26;;;;;;;9.80;3.20;;;25.00;60.70;;;;;;5054323;28;20460;-87
2024/04/03 15:55:52;;;;;;;9.13;3.80;;;25.00;61.00;;;;;;5054103;28;20470;-87
2024/04/03 15:58:19;;;;;;;7.33;3.40;;;25.00;61.10;;;;;;5054443;28;20441;-86
2024/04/03 16:00:45;;;;;;;7.80;3.30;;;25.00;61.30;;;;;;5065684;28;20195;-86
2024/04/03 16:03:13;;;;;;;13.00;3.40;;;25.00;61.20;;;;;;5041214;28;20482;-83
2024/04/03 16:05:39;;;;;;;13.50;4.60;;;25.10;61.40;;;;;;5054024;28;20485;-86
2024/04/03 16:08:06;;;;;;;8.47;3.50;;;25.10;61.10;;;;;;5054295;28;20873;-86
2024/04/03 16:10:32;;;;;;;8.57;3.70;;;25.10;61.20;;;;;;5053999;28;20816;-83
2024/04/03 16:12:59;;;;;;;7.73;3.10;;;25.20;61.20;;;;;;5053375;28;20449;-80
2024/04/03 16:15:26;;;;;;;13.43;3.70;;;25.20;61.20;;;;;;5053702;28;20446;-88
2024/04/03 16:17:52;;;;;;;12.40;3.20;;;25.20;61.10;;;;;;5054122;28;20870;-87
2024/04/03 16:20:19;;;;;;;8.33;3.60;;;25.20;61.10;;;;;;5053643;28;20438;-88
2024/04/03 16:22:46;;;;;;;13.13;4.10;;;25.20;62.00;;;;;;5057219;28;20437;-86
2024/04/03 16:25:12;;;;;;;11.13;3.30;;;25.20;61.10;;;;;;5065039;28;20513;-87
2024/04/03 16:27:39;;;;;;;10.20;3.97;;;25.20;61.20;;;;;;5054344;28;20497;-87
2024/04/03 16:30:06;;;;;;;5.00;2.93;;;25.20;61.10;;;;;;5053552;28;20258;-87
2024/04/03 16:32:34;;;;;;;5.37;2.63;;;25.20;61.10;;;;;;5053558;28;20537;-94
2024/04/03 16:35:00;;;;;;;9.40;3.73;;;25.10;60.90;;;;;;5053507;28;20811;-84
2024/04/03 16:37:28;;;;;;;5.47;3.20;;;25.20;61.00;;;;;;5053599;28;20471;-84
2024/04/03 16:39:54;;;;;;;7.13;3.00;;;25.20;61.00;;;;;;5054082;28;20187;-84
2024/04/03 16:42:21;;;;;;;5.17;3.10;;;25.20;61.00;;;;;;5054360;28;20437;-87
2024/04/03 16:44:47;;;;;;;8.20;3.37;;;25.10;60.90;;;;;;5054275;28;20444;-91
2024/04/03 16:47:14;;;;;;;9.07;3.30;;;25.20;61.00;;;;;;5053368;28;20481;-84
2024/04/03 16:49:40;;;;;;;5.80;2.30;;;25.20;61.00;;;;;;5053355;28;20187;-83
2024/04/03 16:52:07;;;;;;;10.40;4.03;;;25.10;60.90;;;;;;5060136;28;20449;-89
2024/04/03 16:54:34;;;;;;;11.53;3.87;;;25.10;60.90;;;;;;5073406;28;20447;-83
2024/04/03 16:57:02;;;;;;;7.60;3.13;;;25.10;60.90;;;;;;5037030;28;20511;-86
2024/04/03 16:59:28;;;;;;;7.30;2.90;;;25.10;61.00;;;;;;5053196;28;20532;-86
2024/04/03 17:01:55;;;;;;;7.03;3.33;;;25.10;61.00;;;;;;5054254;28;20445;-91
2024/04/03 17:04:21;;;;;;;3.83;1.93;;;25.10;60.80;;;;;;5054256;28;20429;-88
2024/04/03 17:06:48;;;;;;;6.77;2.20;;;25.10;60.90;;;;;;5053778;28;20484;-84
2024/04/03 17:09:14;;;;;;;35.73;3.67;;;25.20;61.20;;;;;;5052434;28;20611;-83
2024/04/03 17:11:42;;;;;;;6.77;2.73;;;25.10;60.90;;;;;;5053794;28;20465;-84
2024/04/03 17:14:08;;;;;;;7.37;2.40;;;25.10;61.10;;;;;;5053445;28;20195;-87
2024/04/03 17:16:35;;;;;;;4.97;2.23;;;25.10;61.30;;;;;;5053616;28;20445;-85
2024/04/03 17:19:01;;;;;;;4.73;2.53;;;25.00;61.10;;;;;;5053932;28;20464;-86
2024/04/03 17:21:28;;;;;;;5.53;2.90;;;25.10;62.00;;;;;;5054723;28;20441;-87
2024/04/03 17:23:54;;;;;;;4.13;1.90;;;25.10;61.10;;;;;;5077169;28;20453;-89
2024/04/03 17:26:21;;;;;;;4.87;2.33;;;25.10;61.30;;;;;;5072395;28;20474;-85
2024/04/03 17:28:48;;;;;;;4.97;2.50;;;25.10;61.30;;;;;;5036580;28;20799;-86
2024/04/03 17:31:15;;;;;;;6.20;2.03;;;25.10;61.30;;;;;;5033973;28;20437;-84
2024/04/03 17:33:40;;;;;;;5.27;2.43;;;25.10;61.30;;;;;;5037399;28;20437;-82
2024/04/03 17:36:07;;;;;;;4.70;2.73;;;25.00;61.20;;;;;;5036775;28;20442;-86
2024/04/03 17:38:33;;;;;;;5.10;2.57;;;25.10;61.50;;;;;;5037118;28;20207;-87
2024/04/03 17:41:00;;;;;;;4.70;2.10;;;25.00;61.40;;;;;;5040315;28;20437;-87
2024/04/03 17:43:26;;;;;;;3.50;2.00;;;25.10;61.40;;;;;;5056619;28;20195;-83
2024/04/03 17:45:54;;;;;;;12.17;2.30;;;25.10;61.40;;;;;;5056735;28;20539;-88
2024/04/03 17:48:20;;;;;;;5.50;1.90;;;25.00;61.10;;;;;;5056603;28;20198;-86
2024/04/03 17:50:47;;;;;;;7.80;2.20;;;25.10;61.00;;;;;;5056240;28;21078;-85
2024/04/03 17:53:13;;;;;;;3.43;1.80;;;25.10;60.70;;;;;;5048711;28;20199;-85
2024/04/03 17:55:40;;;;;;;8.60;3.10;;;25.20;61.10;;;;;;5046897;28;20476;-85
2024/04/03 17:58:07;;;;;;;5.27;2.50;;;25.20;61.20;;;;;;5056542;28;20437;-85
2024/04/03 18:00:33;;;;;;;11.70;2.20;;;25.20;61.20;;;;;;5039473;28;20461;-86
2024/04/03 18:03:00;;;;;;;8.37;2.30;;;25.10;61.10;;;;;;5036584;28;20457;-87
2024/04/03 18:05:27;;;;;;;5.13;1.83;;;25.10;61.20;;;;;;5036522;28;20450;-86
2024/04/03 18:07:53;;;;;;;3.40;1.77;;;25.10;61.30;;;;;;5047430;28;20432;-86
2024/04/03 18:10:20;;;;;;;7.90;2.27;;;25.10;61.40;;;;;;5056149;28;20441;-85
2024/04/03 18:12:47;;;;;;;3.20;1.83;;;25.10;61.30;;;;;;5056459;28;20190;-86
2024/04/03 18:15:14;;;;;;;6.77;2.23;;;25.10;61.20;;;;;;5056117;28;20445;-85
2024/04/03 18:17:40;;;;;;;8.20;2.33;;;25.10;61.20;;;;;;5056076;28;20453;-90
2024/04/03 18:20:10;;;;;;;5.57;1.93;;;25.20;61.10;;;;;;5056306;28;20445;-81
2024/04/03 18:22:35;;;;;;;4.50;1.57;;;25.20;61.10;;;;;;5055909;28;20237;-85
2024/04/03 18:25:04;;;;;;;3.60;1.80;;;25.20;61.00;;;;;;5055452;28;20449;-83
2024/04/03 18:27:30;;;;;;;4.00;1.60;;;25.20;62.30;;;;;;5055544;28;20231;-84
2024/04/03 18:29:57;;;;;;;3.93;1.50;;;25.20;61.40;;;;;;5055358;28;20865;-84
2024/04/03 18:32:24;;;;;;;3.40;1.70;;;25.20;61.00;;;;;;5055868;28;20548;-84
2024/04/03 18:34:52;;;;;;;2.87;1.50;;;25.20;62.70;;;;;;5048646;28;20461;-81
2024/04/03 18:37:19;;;;;;;9.73;2.63;;;25.20;61.20;;;;;;5041017;28;20445;-86
2024/04/03 18:39:46;;;;;;;22.17;6.53;;;25.20;61.60;;;;;;5055782;28;20472;-83
2024/04/03 18:42:12;;;;;;;21.33;7.77;;;25.20;63.40;;;;;;5056517;28;20441;-92
2024/04/03 18:44:38;;;;;;;13.33;6.10;;;25.20;65.20;;;;;;5055093;28;20534;-86
2024/04/03 18:47:04;;;;;;;15.80;5.47;;;25.20;63.30;;;;;;5055389;28;20233;-83
2024/04/03 18:49:31;;;;;;;14.07;5.97;;;25.20;63.30;;;;;;5064918;28;20425;-88
2024/04/03 18:51:57;;;;;;;15.43;5.90;;;25.30;64.00;;;;;;5067294;28;20449;-83
2024/04/03 18:54:26;;;;;;;20.40;6.63;;;25.20;65.30;;;;;;5041430;28;20533;-84
2024/04/03 18:56:53;;;;;;;16.50;6.83;;;25.20;64.90;;;;;;5055868;28;20229;-85
2024/04/03 18:59:19;;;;;;;11.20;5.67;;;25.20;64.50;;;;;;5051960;28;20449;-85
2024/04/03 19:01:46;;;;;;;14.43;5.53;;;25.20;64.10;;;;;;5061570;28;20451;-85
2024/04/03 19:04:13;;;;;;;13.93;5.60;;;25.20;64.40;;;;;;5057074;28;20437;-85
2024/04/03 19:06:40;;;;;;;13.40;5.43;;;25.20;64.20;;;;;;5055817;28;20481;-84
2024/04/03 19:09:07;;;;;;;14.57;5.83;;;25.20;64.30;;;;;;5055328;28;20441;-85
2024/04/03 19:11:35;;;;;;;10.70;4.77;;;25.20;64.30;;;;;;5055264;28;20937;-86